In Rescue
 
Open Full Screen Window  High Contrast Mode
Wind Gusting 00 knots
05
January 22, 2020 6:43 PM EST
Weather Information
Wind Direction
  130 °
Wind Speed
  05 kt (6 mph)
Wind Gust
  00 kt (0 mph)
Altimeter
30.31 in
Visibility
10 SM
Temperature
-03° C
27° F
Dewpoint
-08° C
18° F
Humidity
69%
Sky Condition
Clear
VFR

METAR KCDA 222343Z AUTO 13005KT 10SM CLR M03/M08 A3031 RMK AO2 T10351081

FAA Disclaimer: The data displayed is for advisory purposes only and is not to be used for flight planning or operations.